sensor_id;sensor_type;location;lat;lon;timestamp;pressure;altitude;pressure_sealevel;temperature;humidity
40372;BME280;28564;53.346;-6.554;2022-12-10T00:01:06;100242.34;;;2.43;52.76
40372;BME280;28564;53.346;-6.554;2022-12-10T00:03:34;100246.44;;;2.49;52.65
40372;BME280;28564;53.346;-6.554;2022-12-10T00:06:02;100244.29;;;2.50;52.79
40372;BME280;28564;53.346;-6.554;2022-12-10T00:08:30;100243.87;;;2.59;52.60
40372;BME280;28564;53.346;-6.554;2022-12-10T00:10:58;100242.03;;;2.65;52.49
40372;BME280;28564;53.346;-6.554;2022-12-10T00:13:26;100242.18;;;2.67;52.60
40372;BME280;28564;53.346;-6.554;2022-12-10T00:15:54;100244.02;;;2.70;52.54
40372;BME280;28564;53.346;-6.554;2022-12-10T00:18:21;100242.30;;;2.70;52.69
40372;BME280;28564;53.346;-6.554;2022-12-10T00:20:48;100241.49;;;2.72;52.78
40372;BME280;28564;53.346;-6.554;2022-12-10T00:23:15;100247.17;;;2.68;53.00
40372;BME280;28564;53.346;-6.554;2022-12-10T00:25:42;100247.51;;;2.68;53.10
40372;BME280;28564;53.346;-6.554;2022-12-10T00:28:10;100238.11;;;2.65;53.18
40372;BME280;28564;53.346;-6.554;2022-12-10T00:30:37;100233.46;;;2.65;53.39
40372;BME280;28564;53.346;-6.554;2022-12-10T00:33:05;100230.04;;;2.64;53.47
40372;BME280;28564;53.346;-6.554;2022-12-10T00:35:35;100234.40;;;2.76;53.21
40372;BME280;28564;53.346;-6.554;2022-12-10T00:38:02;100235.27;;;2.74;53.45
40372;BME280;28564;53.346;-6.554;2022-12-10T00:40:30;100239.10;;;2.74;53.66
40372;BME280;28564;53.346;-6.554;2022-12-10T00:42:57;100242.05;;;2.84;53.45
40372;BME280;28564;53.346;-6.554;2022-12-10T00:45:25;100242.54;;;2.88;53.12
40372;BME280;28564;53.346;-6.554;2022-12-10T00:47:52;100244.12;;;2.87;53.08
40372;BME280;28564;53.346;-6.554;2022-12-10T00:50:19;100238.89;;;2.82;53.22
40372;BME280;28564;53.346;-6.554;2022-12-10T00:52:46;100240.74;;;2.83;53.51
40372;BME280;28564;53.346;-6.554;2022-12-10T00:55:13;100234.45;;;2.90;53.41
40372;BME280;28564;53.346;-6.554;2022-12-10T00:57:40;100244.32;;;2.74;53.07
40372;BME280;28564;53.346;-6.554;2022-12-10T01:00:09;100241.32;;;2.95;52.94
40372;BME280;28564;53.346;-6.554;2022-12-10T01:02:37;100240.68;;;2.87;53.32
40372;BME280;28564;53.346;-6.554;2022-12-10T01:05:04;100242.35;;;2.92;53.13
40372;BME280;28564;53.346;-6.554;2022-12-10T01:07:31;100235.69;;;2.89;53.34
40372;BME280;28564;53.346;-6.554;2022-12-10T01:09:58;100237.09;;;2.91;53.39
40372;BME280;28564;53.346;-6.554;2022-12-10T01:12:26;100238.17;;;2.93;53.33
40372;BME280;28564;53.346;-6.554;2022-12-10T01:14:53;100233.57;;;2.72;53.24
40372;BME280;28564;53.346;-6.554;2022-12-10T01:17:20;100235.17;;;2.88;53.36
40372;BME280;28564;53.346;-6.554;2022-12-10T01:19:48;100246.18;;;2.90;53.47
40372;BME280;28564;53.346;-6.554;2022-12-10T01:22:15;100243.35;;;2.87;53.55
40372;BME280;28564;53.346;-6.554;2022-12-10T01:24:43;100239.93;;;2.85;53.61
40372;BME280;28564;53.346;-6.554;2022-12-10T01:27:10;100238.65;;;2.85;53.92
40372;BME280;28564;53.346;-6.554;2022-12-10T01:29:37;100240.16;;;2.69;53.86
40372;BME280;28564;53.346;-6.554;2022-12-10T01:32:04;100230.05;;;2.96;53.62
40372;BME280;28564;53.346;-6.554;2022-12-10T01:34:32;100226.80;;;3.00;53.72
40372;BME280;28564;53.346;-6.554;2022-12-10T01:36:59;100226.77;;;2.85;53.38
40372;BME280;28564;53.346;-6.554;2022-12-10T01:39:26;100226.65;;;2.84;53.32
40372;BME280;28564;53.346;-6.554;2022-12-10T01:41:55;100227.18;;;3.05;53.33
40372;BME280;28564;53.346;-6.554;2022-12-10T01:45:28;100225.55;;;3.06;53.19
40372;BME280;28564;53.346;-6.554;2022-12-10T01:47:56;100224.63;;;2.98;53.49
40372;BME280;28564;53.346;-6.554;2022-12-10T01:50:23;100222.80;;;2.97;53.55
40372;BME280;28564;53.346;-6.554;2022-12-10T01:52:50;100225.08;;;2.93;53.74
40372;BME280;28564;53.346;-6.554;2022-12-10T01:55:50;100222.08;;;2.91;53.79
40372;BME280;28564;53.346;-6.554;2022-12-10T01:58:18;100218.79;;;3.22;53.72
40372;BME280;28564;53.346;-6.554;2022-12-10T02:00:55;100220.77;;;2.96;53.87
40372;BME280;28564;53.346;-6.554;2022-12-10T02:03:32;100225.38;;;3.01;53.70
40372;BME280;28564;53.346;-6.554;2022-12-10T02:06:12;100223.13;;;3.02;53.68
40372;BME280;28564;53.346;-6.554;2022-12-10T02:08:50;100223.68;;;3.04;53.63
40372;BME280;28564;53.346;-6.554;2022-12-10T02:11:27;100224.14;;;3.00;53.84
40372;BME280;28564;53.346;-6.554;2022-12-10T02:14:02;100228.02;;;2.83;53.74
40372;BME280;28564;53.346;-6.554;2022-12-10T02:16:34;100229.44;;;3.07;53.64
40372;BME280;28564;53.346;-6.554;2022-12-10T02:19:13;100225.13;;;3.05;53.71
40372;BME280;28564;53.346;-6.554;2022-12-10T02:21:47;100224.29;;;3.09;53.45
40372;BME280;28564;53.346;-6.554;2022-12-10T02:24:18;100225.45;;;3.07;53.36
40372;BME280;28564;53.346;-6.554;2022-12-10T02:26:54;100222.66;;;2.60;53.37
40372;BME280;28564;53.346;-6.554;2022-12-10T02:29:26;100222.85;;;3.02;53.41
40372;BME280;28564;53.346;-6.554;2022-12-10T02:31:55;100216.85;;;3.01;53.28
40372;BME280;28564;53.346;-6.554;2022-12-10T02:34:27;100217.09;;;2.78;53.19
40372;BME280;28564;53.346;-6.554;2022-12-10T02:36:58;100219.19;;;2.75;53.18
40372;BME280;28564;53.346;-6.554;2022-12-10T02:39:31;100212.55;;;2.72;53.16
40372;BME280;28564;53.346;-6.554;2022-12-10T02:42:03;100213.56;;;2.86;53.26
40372;BME280;28564;53.346;-6.554;2022-12-10T02:44:32;100210.02;;;2.83;53.42
40372;BME280;28564;53.346;-6.554;2022-12-10T02:47:01;100206.17;;;2.82;53.46
40372;BME280;28564;53.346;-6.554;2022-12-10T02:49:30;100211.13;;;2.79;53.55
40372;BME280;28564;53.346;-6.554;2022-12-10T02:51:57;100209.08;;;2.79;53.66
40372;BME280;28564;53.346;-6.554;2022-12-10T02:54:36;100210.53;;;2.78;53.73
40372;BME280;28564;53.346;-6.554;2022-12-10T02:57:10;100209.56;;;2.83;53.63
40372;BME280;28564;53.346;-6.554;2022-12-10T02:59:51;100207.84;;;2.85;53.81
40372;BME280;28564;53.346;-6.554;2022-12-10T03:02:31;100205.87;;;2.93;53.53
40372;BME280;28564;53.346;-6.554;2022-12-10T03:05:05;100202.91;;;2.92;53.61
40372;BME280;28564;53.346;-6.554;2022-12-10T03:07:37;100206.05;;;3.00;53.33
40372;BME280;28564;53.346;-6.554;2022-12-10T03:10:12;100204.90;;;2.98;53.27
40372;BME280;28564;53.346;-6.554;2022-12-10T03:12:45;100204.34;;;2.96;53.64
40372;BME280;28564;53.346;-6.554;2022-12-10T03:15:14;100202.58;;;3.01;53.66
40372;BME280;28564;53.346;-6.554;2022-12-10T03:17:44;100199.16;;;2.81;53.30
40372;BME280;28564;53.346;-6.554;2022-12-10T03:20:13;100194.35;;;3.02;53.13
40372;BME280;28564;53.346;-6.554;2022-12-10T03:22:44;100192.48;;;2.82;53.16
40372;BME280;28564;53.346;-6.554;2022-12-10T03:25:17;100190.90;;;3.05;53.13
40372;BME280;28564;53.346;-6.554;2022-12-10T03:27:46;100186.16;;;3.04;52.82
40372;BME280;28564;53.346;-6.554;2022-12-10T03:30:15;100183.96;;;2.99;52.96
40372;BME280;28564;53.346;-6.554;2022-12-10T03:32:43;100185.33;;;2.72;52.90
40372;BME280;28564;53.346;-6.554;2022-12-10T03:35:12;100183.14;;;2.90;52.81
40372;BME280;28564;53.346;-6.554;2022-12-10T03:37:40;100184.87;;;2.60;52.85
40372;BME280;28564;53.346;-6.554;2022-12-10T03:40:09;100186.86;;;2.75;52.94
40372;BME280;28564;53.346;-6.554;2022-12-10T03:42:38;100184.96;;;2.76;52.98
40372;BME280;28564;53.346;-6.554;2022-12-10T03:45:07;100186.54;;;2.69;53.20
40372;BME280;28564;53.346;-6.554;2022-12-10T03:47:34;100184.15;;;2.73;53.16
40372;BME280;28564;53.346;-6.554;2022-12-10T03:50:00;100181.61;;;2.73;53.41
40372;BME280;28564;53.346;-6.554;2022-12-10T03:52:28;100179.61;;;2.75;53.21
40372;BME280;28564;53.346;-6.554;2022-12-10T03:54:55;100179.57;;;2.75;53.14
40372;BME280;28564;53.346;-6.554;2022-12-10T03:57:23;100182.15;;;2.75;53.12
40372;BME280;28564;53.346;-6.554;2022-12-10T03:59:50;100178.95;;;2.75;52.97
40372;BME280;28564;53.346;-6.554;2022-12-10T04:02:18;100181.74;;;2.76;53.02
40372;BME280;28564;53.346;-6.554;2022-12-10T04:04:45;100178.92;;;2.72;53.19
40372;BME280;28564;53.346;-6.554;2022-12-10T04:07:12;100181.27;;;2.77;53.27
40372;BME280;28564;53.346;-6.554;2022-12-10T04:09:39;100178.26;;;2.79;53.01
40372;BME280;28564;53.346;-6.554;2022-12-10T04:12:07;100175.59;;;2.82;53.01
40372;BME280;28564;53.346;-6.554;2022-12-10T04:14:34;100176.26;;;2.63;52.84
40372;BME280;28564;53.346;-6.554;2022-12-10T04:17:01;100172.85;;;2.86;52.74
40372;BME280;28564;53.346;-6.554;2022-12-10T04:19:28;100169.17;;;2.82;53.09
40372;BME280;28564;53.346;-6.554;2022-12-10T04:21:56;100162.22;;;2.81;52.83
40372;BME280;28564;53.346;-6.554;2022-12-10T04:24:25;100163.07;;;2.81;52.70
40372;BME280;28564;53.346;-6.554;2022-12-10T04:26:52;100162.41;;;2.55;52.96
40372;BME280;28564;53.346;-6.554;2022-12-10T04:29:21;100161.57;;;2.55;52.95
40372;BME280;28564;53.346;-6.554;2022-12-10T04:31:48;100160.16;;;2.78;52.96
40372;BME280;28564;53.346;-6.554;2022-12-10T04:34:16;100148.83;;;2.58;52.92
40372;BME280;28564;53.346;-6.554;2022-12-10T04:36:44;100145.49;;;2.82;53.11
40372;BME280;28564;53.346;-6.554;2022-12-10T04:39:11;100146.07;;;2.88;52.95
40372;BME280;28564;53.346;-6.554;2022-12-10T04:41:39;100145.25;;;2.69;52.67
40372;BME280;28564;53.346;-6.554;2022-12-10T04:44:07;100141.02;;;2.89;52.47
40372;BME280;28564;53.346;-6.554;2022-12-10T04:46:35;100137.94;;;2.83;52.14
40372;BME280;28564;53.346;-6.554;2022-12-10T04:49:03;100143.54;;;2.72;52.24
40372;BME280;28564;53.346;-6.554;2022-12-10T04:51:31;100142.15;;;2.73;52.29
40372;BME280;28564;53.346;-6.554;2022-12-10T04:53:58;100139.11;;;2.65;52.44
40372;BME280;28564;53.346;-6.554;2022-12-10T04:56:27;100135.48;;;2.60;52.62
40372;BME280;28564;53.346;-6.554;2022-12-10T04:58:55;100136.24;;;2.55;52.67
40372;BME280;28564;53.346;-6.554;2022-12-10T05:01:23;100134.91;;;2.51;52.73
40372;BME280;28564;53.346;-6.554;2022-12-10T05:03:50;100135.98;;;2.43;52.75
40372;BME280;28564;53.346;-6.554;2022-12-10T05:06:18;100134.53;;;2.65;52.98
40372;BME280;28564;53.346;-6.554;2022-12-10T05:08:47;100140.00;;;2.37;53.23
40372;BME280;28564;53.346;-6.554;2022-12-10T05:11:16;100140.21;;;2.37;53.29
40372;BME280;28564;53.346;-6.554;2022-12-10T05:13:44;100145.62;;;2.41;53.54
40372;BME280;28564;53.346;-6.554;2022-12-10T05:16:14;100148.05;;;2.46;53.58
40372;BME280;28564;53.346;-6.554;2022-12-10T05:18:41;100147.69;;;2.54;53.26
40372;BME280;28564;53.346;-6.554;2022-12-10T05:21:11;100149.53;;;2.58;53.18
40372;BME280;28564;53.346;-6.554;2022-12-10T05:23:42;100145.00;;;2.61;52.74
40372;BME280;28564;53.346;-6.554;2022-12-10T05:26:12;100141.55;;;2.56;52.61
40372;BME280;28564;53.346;-6.554;2022-12-10T05:28:41;100141.35;;;2.54;52.42
40372;BME280;28564;53.346;-6.554;2022-12-10T05:31:12;100142.91;;;2.46;52.52
40372;BME280;28564;53.346;-6.554;2022-12-10T05:33:39;100142.18;;;2.40;52.83
40372;BME280;28564;53.346;-6.554;2022-12-10T05:36:08;100142.35;;;2.41;52.78
40372;BME280;28564;53.346;-6.554;2022-12-10T05:38:36;100139.24;;;2.42;52.82
40372;BME280;28564;53.346;-6.554;2022-12-10T05:41:03;100137.99;;;2.44;52.81
40372;BME280;28564;53.346;-6.554;2022-12-10T05:43:31;100139.88;;;2.44;52.72
40372;BME280;28564;53.346;-6.554;2022-12-10T05:46:00;100140.33;;;2.46;52.79
40372;BME280;28564;53.346;-6.554;2022-12-10T05:48:27;100143.34;;;2.48;52.99
40372;BME280;28564;53.346;-6.554;2022-12-10T05:50:55;100139.02;;;2.52;52.75
40372;BME280;28564;53.346;-6.554;2022-12-10T05:53:23;100137.42;;;2.56;52.69
40372;BME280;28564;53.346;-6.554;2022-12-10T05:55:56;100138.31;;;2.54;52.84
40372;BME280;28564;53.346;-6.554;2022-12-10T05:58:27;100139.75;;;2.63;52.51
40372;BME280;28564;53.346;-6.554;2022-12-10T06:00:54;100138.45;;;2.62;52.63
40372;BME280;28564;53.346;-6.554;2022-12-10T06:03:22;100137.44;;;2.69;52.48
40372;BME280;28564;53.346;-6.554;2022-12-10T06:05:50;100137.70;;;2.46;52.26
40372;BME280;28564;53.346;-6.554;2022-12-10T06:08:17;100136.29;;;2.66;52.22
40372;BME280;28564;53.346;-6.554;2022-12-10T06:10:45;100135.88;;;2.70;52.37
40372;BME280;28564;53.346;-6.554;2022-12-10T06:13:12;100131.62;;;2.47;52.01
40372;BME280;28564;53.346;-6.554;2022-12-10T06:15:41;100130.62;;;2.63;51.92
40372;BME280;28564;53.346;-6.554;2022-12-10T06:18:09;100136.37;;;2.63;51.85
40372;BME280;28564;53.346;-6.554;2022-12-10T06:20:38;100136.74;;;2.56;51.57
40372;BME280;28564;53.346;-6.554;2022-12-10T06:23:06;100135.75;;;2.38;51.86
40372;BME280;28564;53.346;-6.554;2022-12-10T06:25:37;100134.90;;;2.30;52.15
40372;BME280;28564;53.346;-6.554;2022-12-10T06:28:04;100130.87;;;2.28;52.10
40372;BME280;28564;53.346;-6.554;2022-12-10T06:30:32;100132.96;;;2.29;52.04
40372;BME280;28564;53.346;-6.554;2022-12-10T06:32:59;100132.59;;;2.28;52.01
40372;BME280;28564;53.346;-6.554;2022-12-10T06:35:27;100138.56;;;2.71;52.34
40372;BME280;28564;53.346;-6.554;2022-12-10T06:37:54;100135.96;;;2.17;52.62
40372;BME280;28564;53.346;-6.554;2022-12-10T06:40:21;100139.08;;;2.47;52.40
40372;BME280;28564;53.346;-6.554;2022-12-10T06:42:51;100138.37;;;2.16;52.31
40372;BME280;28564;53.346;-6.554;2022-12-10T06:45:18;100142.07;;;2.11;52.23
40372;BME280;28564;53.346;-6.554;2022-12-10T06:47:46;100144.04;;;2.32;52.45
40372;BME280;28564;53.346;-6.554;2022-12-10T06:50:12;100143.42;;;2.04;52.47
40372;BME280;28564;53.346;-6.554;2022-12-10T06:52:39;100143.37;;;2.10;52.45
40372;BME280;28564;53.346;-6.554;2022-12-10T06:55:07;100146.27;;;2.11;52.69
40372;BME280;28564;53.346;-6.554;2022-12-10T06:57:35;100144.22;;;2.15;52.48
40372;BME280;28564;53.346;-6.554;2022-12-10T07:00:03;100144.38;;;2.13;52.54
40372;BME280;28564;53.346;-6.554;2022-12-10T07:02:31;100141.52;;;2.16;52.45
40372;BME280;28564;53.346;-6.554;2022-12-10T07:04:59;100142.19;;;2.40;52.50
40372;BME280;28564;53.346;-6.554;2022-12-10T07:07:27;100141.60;;;2.66;52.63
40372;BME280;28564;53.346;-6.554;2022-12-10T07:09:54;100140.58;;;2.22;52.72
40372;BME280;28564;53.346;-6.554;2022-12-10T07:12:21;100139.46;;;2.25;52.90
40372;BME280;28564;53.346;-6.554;2022-12-10T07:14:48;100144.69;;;2.32;52.79
40372;BME280;28564;53.346;-6.554;2022-12-10T07:17:15;100146.90;;;2.41;52.37
40372;BME280;28564;53.346;-6.554;2022-12-10T07:19:43;100148.89;;;2.41;52.49
40372;BME280;28564;53.346;-6.554;2022-12-10T07:22:10;100149.23;;;2.44;52.34
40372;BME280;28564;53.346;-6.554;2022-12-10T07:24:37;100143.85;;;2.46;52.17
40372;BME280;28564;53.346;-6.554;2022-12-10T07:27:05;100142.00;;;2.42;52.11
40372;BME280;28564;53.346;-6.554;2022-12-10T07:29:33;100147.16;;;2.39;52.07
40372;BME280;28564;53.346;-6.554;2022-12-10T07:32:00;100148.07;;;2.33;51.93
40372;BME280;28564;53.346;-6.554;2022-12-10T07:34:28;100147.70;;;2.27;52.02
40372;BME280;28564;53.346;-6.554;2022-12-10T07:36:55;100144.11;;;2.16;52.20
40372;BME280;28564;53.346;-6.554;2022-12-10T07:39:23;100141.58;;;2.10;52.19
40372;BME280;28564;53.346;-6.554;2022-12-10T07:41:51;100146.54;;;2.32;52.07
40372;BME280;28564;53.346;-6.554;2022-12-10T07:44:20;100147.23;;;1.97;52.13
40372;BME280;28564;53.346;-6.554;2022-12-10T07:46:48;100145.53;;;1.91;52.16
40372;BME280;28564;53.346;-6.554;2022-12-10T07:49:16;100141.58;;;1.83;52.27
40372;BME280;28564;53.346;-6.554;2022-12-10T07:51:44;100145.18;;;1.81;52.22
40372;BME280;28564;53.346;-6.554;2022-12-10T07:54:12;100137.42;;;2.01;52.13
40372;BME280;28564;53.346;-6.554;2022-12-10T07:56:39;100139.13;;;1.92;52.14
40372;BME280;28564;53.346;-6.554;2022-12-10T07:59:06;100139.18;;;1.82;52.21
40372;BME280;28564;53.346;-6.554;2022-12-10T08:01:34;100140.85;;;2.00;52.34
40372;BME280;28564;53.346;-6.554;2022-12-10T08:04:01;100135.26;;;1.69;52.67
40372;BME280;28564;53.346;-6.554;2022-12-10T08:06:28;100136.67;;;1.68;52.76
40372;BME280;28564;53.346;-6.554;2022-12-10T08:08:58;100139.36;;;1.91;52.93
40372;BME280;28564;53.346;-6.554;2022-12-10T08:11:26;100141.60;;;1.50;52.99
40372;BME280;28564;53.346;-6.554;2022-12-10T08:13:54;100143.71;;;2.04;53.01
40372;BME280;28564;53.346;-6.554;2022-12-10T08:16:23;100149.54;;;2.09;52.98
40372;BME280;28564;53.346;-6.554;2022-12-10T08:18:50;100148.26;;;2.09;52.93
40372;BME280;28564;53.346;-6.554;2022-12-10T08:21:19;100143.39;;;1.91;53.06
40372;BME280;28564;53.346;-6.554;2022-12-10T08:23:47;100146.34;;;1.69;52.83
40372;BME280;28564;53.346;-6.554;2022-12-10T08:26:17;100144.67;;;2.00;52.71
40372;BME280;28564;53.346;-6.554;2022-12-10T08:28:46;100149.63;;;1.99;52.72
40372;BME280;28564;53.346;-6.554;2022-12-10T08:31:15;100147.15;;;2.17;52.61
40372;BME280;28564;53.346;-6.554;2022-12-10T08:33:42;100151.64;;;2.16;52.80
40372;BME280;28564;53.346;-6.554;2022-12-10T08:36:12;100153.99;;;2.21;52.75
40372;BME280;28564;53.346;-6.554;2022-12-10T08:38:40;100154.95;;;2.17;52.79
40372;BME280;28564;53.346;-6.554;2022-12-10T08:41:08;100155.48;;;2.17;53.14
40372;BME280;28564;53.346;-6.554;2022-12-10T08:43:36;100152.83;;;1.95;52.71
40372;BME280;28564;53.346;-6.554;2022-12-10T08:46:04;100154.95;;;1.89;52.58
40372;BME280;28564;53.346;-6.554;2022-12-10T08:48:32;100156.20;;;1.85;52.50
40372;BME280;28564;53.346;-6.554;2022-12-10T08:51:00;100156.76;;;1.82;52.50
40372;BME280;28564;53.346;-6.554;2022-12-10T08:53:28;100153.68;;;2.01;52.58
40372;BME280;28564;53.346;-6.554;2022-12-10T08:55:55;100156.05;;;1.96;52.69
40372;BME280;28564;53.346;-6.554;2022-12-10T08:58:23;100158.09;;;1.94;52.69
40372;BME280;28564;53.346;-6.554;2022-12-10T09:00:50;100157.96;;;1.71;52.60
40372;BME280;28564;53.346;-6.554;2022-12-10T09:03:18;100162.32;;;1.46;52.88
40372;BME280;28564;53.346;-6.554;2022-12-10T09:05:45;100164.04;;;2.00;52.73
40372;BME280;28564;53.346;-6.554;2022-12-10T09:08:13;100162.20;;;2.03;52.90
40372;BME280;28564;53.346;-6.554;2022-12-10T09:10:40;100160.15;;;1.81;52.75
40372;BME280;28564;53.346;-6.554;2022-12-10T09:13:09;100161.19;;;1.85;52.99
40372;BME280;28564;53.346;-6.554;2022-12-10T09:15:36;100165.82;;;1.74;52.92
40372;BME280;28564;53.346;-6.554;2022-12-10T09:18:04;100167.28;;;1.86;52.95
40372;BME280;28564;53.346;-6.554;2022-12-10T09:20:31;100167.99;;;1.98;52.91
40372;BME280;28564;53.346;-6.554;2022-12-10T09:22:59;100168.03;;;2.05;52.86
40372;BME280;28564;53.346;-6.554;2022-12-10T09:25:27;100163.46;;;2.14;52.23
40372;BME280;28564;53.346;-6.554;2022-12-10T09:27:54;100167.16;;;2.12;52.28
40372;BME280;28564;53.346;-6.554;2022-12-10T09:30:21;100168.89;;;2.13;52.10
40372;BME280;28564;53.346;-6.554;2022-12-10T09:32:49;100164.43;;;2.09;52.34
40372;BME280;28564;53.346;-6.554;2022-12-10T09:35:16;100164.79;;;2.12;52.39
40372;BME280;28564;53.346;-6.554;2022-12-10T09:37:43;100164.90;;;2.19;52.18
40372;BME280;28564;53.346;-6.554;2022-12-10T09:40:15;100167.40;;;2.23;52.23
40372;BME280;28564;53.346;-6.554;2022-12-10T09:42:47;100171.03;;;2.36;52.16
40372;BME280;28564;53.346;-6.554;2022-12-10T09:45:23;100175.40;;;2.56;51.95
40372;BME280;28564;53.346;-6.554;2022-12-10T09:48:00;100176.42;;;2.60;52.02
40372;BME280;28564;53.346;-6.554;2022-12-10T09:50:32;100175.62;;;2.65;52.23
40372;BME280;28564;53.346;-6.554;2022-12-10T09:53:01;100176.69;;;2.56;51.93
40372;BME280;28564;53.346;-6.554;2022-12-10T09:55:33;100176.43;;;2.87;51.80
40372;BME280;28564;53.346;-6.554;2022-12-10T09:58:04;100171.29;;;2.92;51.63
40372;BME280;28564;53.346;-6.554;2022-12-10T10:00:36;100167.80;;;2.70;51.58
40372;BME280;28564;53.346;-6.554;2022-12-10T10:03:04;100168.14;;;2.95;51.31
40372;BME280;28564;53.346;-6.554;2022-12-10T10:05:35;100170.80;;;2.95;51.35
40372;BME280;28564;53.346;-6.554;2022-12-10T10:08:05;100169.18;;;2.88;51.21
40372;BME280;28564;53.346;-6.554;2022-12-10T10:10:35;100174.35;;;2.79;51.55
40372;BME280;28564;53.346;-6.554;2022-12-10T10:13:12;100174.31;;;2.80;51.70
40372;BME280;28564;53.346;-6.554;2022-12-10T10:15:43;100174.77;;;2.85;51.82
40372;BME280;28564;53.346;-6.554;2022-12-10T10:18:15;100172.75;;;2.67;51.69
40372;BME280;28564;53.346;-6.554;2022-12-10T10:20:45;100176.77;;;2.92;51.65
40372;BME280;28564;53.346;-6.554;2022-12-10T10:23:14;100176.86;;;2.92;51.76
40372;BME280;28564;53.346;-6.554;2022-12-10T10:25:42;100176.88;;;2.84;51.63
40372;BME280;28564;53.346;-6.554;2022-12-10T10:28:12;100179.81;;;3.11;51.93
40372;BME280;28564;53.346;-6.554;2022-12-10T10:30:43;100180.49;;;3.04;51.58
40372;BME280;28564;53.346;-6.554;2022-12-10T10:33:13;100180.85;;;2.88;51.62
40372;BME280;28564;53.346;-6.554;2022-12-10T10:35:45;100183.96;;;3.18;51.59
40372;BME280;28564;53.346;-6.554;2022-12-10T10:38:18;100183.81;;;3.26;51.63
40372;BME280;28564;53.346;-6.554;2022-12-10T10:40:50;100180.97;;;3.32;51.11
40372;BME280;28564;53.346;-6.554;2022-12-10T10:43:21;100187.00;;;3.05;51.10
40372;BME280;28564;53.346;-6.554;2022-12-10T10:45:52;100184.05;;;3.03;51.24
40372;BME280;28564;53.346;-6.554;2022-12-10T10:48:23;100189.67;;;3.43;51.54
40372;BME280;28564;53.346;-6.554;2022-12-10T10:50:52;100189.13;;;3.44;51.61
40372;BME280;28564;53.346;-6.554;2022-12-10T10:53:23;100186.79;;;3.64;51.45
40372;BME280;28564;53.346;-6.554;2022-12-10T10:55:54;100183.46;;;3.87;51.24
40372;BME280;28564;53.346;-6.554;2022-12-10T10:58:23;100187.73;;;4.08;50.59
40372;BME280;28564;53.346;-6.554;2022-12-10T11:00:57;100190.67;;;3.71;50.54
40372;BME280;28564;53.346;-6.554;2022-12-10T11:03:25;100193.09;;;4.00;50.36
40372;BME280;28564;53.346;-6.554;2022-12-10T11:05:54;100189.42;;;4.05;49.87
40372;BME280;28564;53.346;-6.554;2022-12-10T11:08:24;100185.73;;;4.26;49.81
40372;BME280;28564;53.346;-6.554;2022-12-10T11:10:58;100181.22;;;4.43;49.74
40372;BME280;28564;53.346;-6.554;2022-12-10T11:13:27;100179.38;;;3.84;49.89
40372;BME280;28564;53.346;-6.554;2022-12-10T11:15:57;100176.38;;;4.08;49.64
40372;BME280;28564;53.346;-6.554;2022-12-10T11:18:30;100178.47;;;3.72;49.98
40372;BME280;28564;53.346;-6.554;2022-12-10T11:21:00;100179.19;;;3.96;50.15
40372;BME280;28564;53.346;-6.554;2022-12-10T11:23:30;100176.59;;;3.97;50.64
40372;BME280;28564;53.346;-6.554;2022-12-10T11:26:26;100176.46;;;3.81;50.76
40372;BME280;28564;53.346;-6.554;2022-12-10T11:29:05;100178.12;;;3.73;50.43
40372;BME280;28564;53.346;-6.554;2022-12-10T11:31:46;100178.66;;;4.33;50.38
40372;BME280;28564;53.346;-6.554;2022-12-10T11:34:20;100182.92;;;4.16;50.32
40372;BME280;28564;53.346;-6.554;2022-12-10T11:37:02;100181.32;;;4.03;50.17
40372;BME280;28564;53.346;-6.554;2022-12-10T11:39:51;100182.06;;;4.34;50.14
40372;BME280;28564;53.346;-6.554;2022-12-10T11:42:26;100183.80;;;4.28;50.07
40372;BME280;28564;53.346;-6.554;2022-12-10T11:45:00;100179.39;;;4.34;49.38
40372;BME280;28564;53.346;-6.554;2022-12-10T11:47:39;100174.29;;;4.37;49.37
40372;BME280;28564;53.346;-6.554;2022-12-10T11:50:19;100173.87;;;4.42;49.44
40372;BME280;28564;53.346;-6.554;2022-12-10T11:53:01;100168.18;;;4.51;49.70
40372;BME280;28564;53.346;-6.554;2022-12-10T11:55:38;100164.38;;;4.56;49.39
40372;BME280;28564;53.346;-6.554;2022-12-10T11:58:28;100162.29;;;4.56;49.28
40372;BME280;28564;53.346;-6.554;2022-12-10T12:01:04;100164.37;;;4.70;49.31
40372;BME280;28564;53.346;-6.554;2022-12-10T12:03:54;100164.27;;;4.80;49.06
40372;BME280;28564;53.346;-6.554;2022-12-10T12:06:51;100159.61;;;4.85;49.12
40372;BME280;28564;53.346;-6.554;2022-12-10T12:09:28;100161.19;;;4.89;49.20
40372;BME280;28564;53.346;-6.554;2022-12-10T12:12:12;100159.00;;;4.89;49.03
40372;BME280;28564;53.346;-6.554;2022-12-10T12:14:46;100159.98;;;4.94;48.96
40372;BME280;28564;53.346;-6.554;2022-12-10T12:17:20;100163.37;;;4.85;48.89
40372;BME280;28564;53.346;-6.554;2022-12-10T12:19:52;100165.88;;;4.77;48.93
40372;BME280;28564;53.346;-6.554;2022-12-10T12:22:24;100168.95;;;4.68;49.12
40372;BME280;28564;53.346;-6.554;2022-12-10T12:24:56;100168.42;;;4.59;49.32
40372;BME280;28564;53.346;-6.554;2022-12-10T12:27:30;100170.42;;;4.56;49.10
40372;BME280;28564;53.346;-6.554;2022-12-10T12:30:05;100174.73;;;4.43;49.30
40372;BME280;28564;53.346;-6.554;2022-12-10T12:32:44;100176.50;;;4.33;49.57
40372;BME280;28564;53.346;-6.554;2022-12-10T12:35:18;100178.73;;;4.23;49.79
40372;BME280;28564;53.346;-6.554;2022-12-10T12:37:51;100181.77;;;4.69;49.93
40372;BME280;28564;53.346;-6.554;2022-12-10T12:40:27;100178.89;;;4.38;49.98
40372;BME280;28564;53.346;-6.554;2022-12-10T12:42:59;100180.03;;;4.16;50.22
40372;BME280;28564;53.346;-6.554;2022-12-10T12:45:34;100180.70;;;4.19;50.16
40372;BME280;28564;53.346;-6.554;2022-12-10T12:48:13;100179.42;;;4.24;50.33
40372;BME280;28564;53.346;-6.554;2022-12-10T12:50:45;100175.16;;;4.54;50.35
40372;BME280;28564;53.346;-6.554;2022-12-10T12:53:15;100174.26;;;4.87;50.17
40372;BME280;28564;53.346;-6.554;2022-12-10T12:55:53;100167.08;;;4.42;50.19
40372;BME280;28564;53.346;-6.554;2022-12-10T12:58:31;100168.11;;;4.45;50.10
40372;BME280;28564;53.346;-6.554;2022-12-10T13:01:28;100165.79;;;4.47;50.03
40372;BME280;28564;53.346;-6.554;2022-12-10T13:03:57;100164.56;;;4.64;49.97
40372;BME280;28564;53.346;-6.554;2022-12-10T13:06:28;100165.72;;;4.39;50.05